sensor_id;sensor_type;location;lat;lon;timestamp;pressure;altitude;pressure_sealevel;temperature;humidity
73671;BME280;61968;48.178;11.566;2022-09-09T00:00:12;95552.78;;;17.97;37.39
73671;BME280;61968;48.178;11.566;2022-09-09T00:02:43;95560.47;;;18.04;37.50
73671;BME280;61968;48.178;11.566;2022-09-09T00:05:18;95562.31;;;18.08;37.24
73671;BME280;61968;48.178;11.566;2022-09-09T00:07:47;95567.69;;;18.03;37.57
73671;BME280;61968;48.178;11.566;2022-09-09T00:10:22;95560.50;;;17.99;37.73
73671;BME280;61968;48.178;11.566;2022-09-09T00:12:57;95560.47;;;18.04;37.72
73671;BME280;61968;48.178;11.566;2022-09-09T00:15:29;95550.28;;;18.06;37.86
73671;BME280;61968;48.178;11.566;2022-09-09T00:18:07;95551.66;;;18.03;37.27
73671;BME280;61968;48.178;11.566;2022-09-09T00:20:38;95550.13;;;17.92;37.27
73671;BME280;61968;48.178;11.566;2022-09-09T00:23:12;95547.47;;;17.92;37.73
73671;BME280;61968;48.178;11.566;2022-09-09T00:25:42;95547.91;;;17.99;37.59
73671;BME280;61968;48.178;11.566;2022-09-09T00:28:18;95554.88;;;18.00;37.33
73671;BME280;61968;48.178;11.566;2022-09-09T00:30:45;95551.13;;;18.01;37.23
73671;BME280;61968;48.178;11.566;2022-09-09T00:33:16;95549.25;;;18.02;37.64
73671;BME280;61968;48.178;11.566;2022-09-09T00:35:48;95549.50;;;18.05;37.73
73671;BME280;61968;48.178;11.566;2022-09-09T00:38:18;95544.59;;;18.12;38.10
73671;BME280;61968;48.178;11.566;2022-09-09T00:40:49;95545.69;;;18.11;37.71
73671;BME280;61968;48.178;11.566;2022-09-09T00:43:28;95546.81;;;18.05;37.66
73671;BME280;61968;48.178;11.566;2022-09-09T00:46:11;95549.75;;;18.04;37.38
73671;BME280;61968;48.178;11.566;2022-09-09T00:48:50;95551.91;;;18.02;37.40
73671;BME280;61968;48.178;11.566;2022-09-09T00:51:28;95548.97;;;18.03;38.01
73671;BME280;61968;48.178;11.566;2022-09-09T00:54:28;95544.75;;;17.97;37.88
73671;BME280;61968;48.178;11.566;2022-09-09T00:57:14;95546.44;;;17.88;37.95
73671;BME280;61968;48.178;11.566;2022-09-09T00:59:47;95551.25;;;17.86;38.20
73671;BME280;61968;48.178;11.566;2022-09-09T01:02:24;95546.44;;;17.88;38.12
73671;BME280;61968;48.178;11.566;2022-09-09T01:04:56;95549.34;;;17.91;38.24
73671;BME280;61968;48.178;11.566;2022-09-09T01:07:27;95549.59;;;17.90;38.42
73671;BME280;61968;48.178;11.566;2022-09-09T01:09:56;95549.38;;;17.86;38.18
73671;BME280;61968;48.178;11.566;2022-09-09T01:12:26;95553.94;;;17.86;38.20
73671;BME280;61968;48.178;11.566;2022-09-09T01:15:00;95558.25;;;17.82;38.26
73671;BME280;61968;48.178;11.566;2022-09-09T01:17:31;95552.38;;;17.80;38.59
73671;BME280;61968;48.178;11.566;2022-09-09T01:20:08;95548.63;;;17.81;38.33
73671;BME280;61968;48.178;11.566;2022-09-09T01:22:45;95552.06;;;17.86;38.30
73671;BME280;61968;48.178;11.566;2022-09-09T01:25:29;95552.69;;;17.78;38.12
73671;BME280;61968;48.178;11.566;2022-09-09T01:27:58;95547.59;;;17.77;38.35
73671;BME280;61968;48.178;11.566;2022-09-09T01:30:27;95548.94;;;17.74;38.37
73671;BME280;61968;48.178;11.566;2022-09-09T01:32:55;95544.69;;;17.73;38.80
73671;BME280;61968;48.178;11.566;2022-09-09T01:35:36;95547.16;;;17.64;38.56
73671;BME280;61968;48.178;11.566;2022-09-09T01:38:04;95542.84;;;17.68;38.46
73671;BME280;61968;48.178;11.566;2022-09-09T01:40:31;95546.56;;;17.73;38.52
73671;BME280;61968;48.178;11.566;2022-09-09T01:42:59;95543.41;;;17.65;38.72
73671;BME280;61968;48.178;11.566;2022-09-09T01:45:26;95555.44;;;17.63;38.61
73671;BME280;61968;48.178;11.566;2022-09-09T01:47:53;95548.19;;;17.68;38.87
73671;BME280;61968;48.178;11.566;2022-09-09T01:50:23;95545.44;;;17.79;38.71
73671;BME280;61968;48.178;11.566;2022-09-09T01:52:52;95550.72;;;17.84;38.92
73671;BME280;61968;48.178;11.566;2022-09-09T01:55:26;95552.38;;;17.80;38.64
73671;BME280;61968;48.178;11.566;2022-09-09T01:58:05;95549.75;;;17.75;38.94
73671;BME280;61968;48.178;11.566;2022-09-09T02:00:36;95549.81;;;17.70;39.15
73671;BME280;61968;48.178;11.566;2022-09-09T02:03:08;95544.50;;;17.64;38.99
73671;BME280;61968;48.178;11.566;2022-09-09T02:05:41;95544.75;;;17.63;38.94
73671;BME280;61968;48.178;11.566;2022-09-09T02:08:14;95547.69;;;17.66;38.94
73671;BME280;61968;48.178;11.566;2022-09-09T02:10:46;95546.06;;;17.65;39.14
73671;BME280;61968;48.178;11.566;2022-09-09T02:13:20;95541.78;;;17.70;39.99
73671;BME280;61968;48.178;11.566;2022-09-09T02:15:53;95542.44;;;17.85;39.10
73671;BME280;61968;48.178;11.566;2022-09-09T02:18:25;95538.88;;;17.95;39.89
73671;BME280;61968;48.178;11.566;2022-09-09T02:20:53;95540.66;;;18.05;39.35
73671;BME280;61968;48.178;11.566;2022-09-09T02:23:20;95540.19;;;17.98;38.47
73671;BME280;61968;48.178;11.566;2022-09-09T02:25:48;95536.13;;;18.05;38.38
73671;BME280;61968;48.178;11.566;2022-09-09T02:28:19;95544.22;;;17.95;38.53
73671;BME280;61968;48.178;11.566;2022-09-09T02:30:49;95542.78;;;17.79;38.65
73671;BME280;61968;48.178;11.566;2022-09-09T02:33:23;95541.72;;;17.75;38.73
73671;BME280;61968;48.178;11.566;2022-09-09T02:35:51;95537.44;;;17.79;39.69
73671;BME280;61968;48.178;11.566;2022-09-09T02:38:20;95534.22;;;17.77;39.48
73671;BME280;61968;48.178;11.566;2022-09-09T02:40:48;95526.25;;;17.72;39.43
73671;BME280;61968;48.178;11.566;2022-09-09T02:43:14;95525.13;;;17.78;39.16
73671;BME280;61968;48.178;11.566;2022-09-09T02:45:52;95532.56;;;17.81;39.38
73671;BME280;61968;48.178;11.566;2022-09-09T02:48:29;95524.38;;;17.72;39.20
73671;BME280;61968;48.178;11.566;2022-09-09T02:51:05;95531.13;;;17.64;39.03
73671;BME280;61968;48.178;11.566;2022-09-09T02:53:39;95521.03;;;17.56;39.19
73671;BME280;61968;48.178;11.566;2022-09-09T02:56:14;95526.94;;;17.53;40.07
73671;BME280;61968;48.178;11.566;2022-09-09T02:58:41;95523.94;;;17.60;39.07
73671;BME280;61968;48.178;11.566;2022-09-09T03:01:10;95538.16;;;17.55;39.74
73671;BME280;61968;48.178;11.566;2022-09-09T03:03:37;95525.31;;;17.57;39.73
73671;BME280;61968;48.178;11.566;2022-09-09T03:06:03;95532.72;;;17.65;39.45
73671;BME280;61968;48.178;11.566;2022-09-09T03:08:30;95532.97;;;17.69;39.55
73671;BME280;61968;48.178;11.566;2022-09-09T03:10:58;95531.53;;;17.82;39.87
73671;BME280;61968;48.178;11.566;2022-09-09T03:13:26;95520.81;;;17.82;39.38
73671;BME280;61968;48.178;11.566;2022-09-09T03:15:53;95520.59;;;17.78;39.29
73671;BME280;61968;48.178;11.566;2022-09-09T03:18:21;95529.22;;;17.70;39.13
73671;BME280;61968;48.178;11.566;2022-09-09T03:20:48;95528.34;;;17.45;39.64
73671;BME280;61968;48.178;11.566;2022-09-09T03:23:14;95518.44;;;17.41;39.74
73671;BME280;61968;48.178;11.566;2022-09-09T03:25:46;95522.75;;;17.37;39.28
73671;BME280;61968;48.178;11.566;2022-09-09T03:28:13;95521.75;;;17.28;39.93
73671;BME280;61968;48.178;11.566;2022-09-09T03:30:39;95523.19;;;17.15;40.30
73671;BME280;61968;48.178;11.566;2022-09-09T03:33:06;95518.09;;;17.18;39.93
73671;BME280;61968;48.178;11.566;2022-09-09T03:35:34;95516.72;;;17.21;39.77
73671;BME280;61968;48.178;11.566;2022-09-09T03:38:01;95518.78;;;17.29;39.91
73671;BME280;61968;48.178;11.566;2022-09-09T03:40:27;95517.41;;;17.37;40.19
73671;BME280;61968;48.178;11.566;2022-09-09T03:42:54;95518.50;;;17.36;39.79
73671;BME280;61968;48.178;11.566;2022-09-09T03:45:20;95525.50;;;17.27;40.11
73671;BME280;61968;48.178;11.566;2022-09-09T03:47:47;95525.00;;;17.25;40.04
73671;BME280;61968;48.178;11.566;2022-09-09T03:50:14;95515.34;;;17.23;39.91
73671;BME280;61968;48.178;11.566;2022-09-09T03:52:42;95513.88;;;17.07;40.72
73671;BME280;61968;48.178;11.566;2022-09-09T03:55:09;95515.88;;;16.86;40.93
73671;BME280;61968;48.178;11.566;2022-09-09T03:57:35;95512.31;;;16.96;40.62
73671;BME280;61968;48.178;11.566;2022-09-09T04:00:02;95514.16;;;17.06;40.54
73671;BME280;61968;48.178;11.566;2022-09-09T04:02:30;95506.88;;;17.11;40.58
73671;BME280;61968;48.178;11.566;2022-09-09T04:04:56;95504.81;;;17.03;40.89
73671;BME280;61968;48.178;11.566;2022-09-09T04:07:23;95511.50;;;17.00;40.79
73671;BME280;61968;48.178;11.566;2022-09-09T04:09:51;95508.28;;;17.04;41.00
73671;BME280;61968;48.178;11.566;2022-09-09T04:12:19;95513.88;;;17.07;40.60
73671;BME280;61968;48.178;11.566;2022-09-09T04:14:46;95506.41;;;17.04;40.51
73671;BME280;61968;48.178;11.566;2022-09-09T04:17:12;95505.34;;;17.05;40.80
73671;BME280;61968;48.178;11.566;2022-09-09T04:19:39;95504.28;;;17.01;40.55
73671;BME280;61968;48.178;11.566;2022-09-09T04:22:07;95495.25;;;16.97;40.76
73671;BME280;61968;48.178;11.566;2022-09-09T04:24:33;95493.63;;;16.96;41.03
73671;BME280;61968;48.178;11.566;2022-09-09T04:27:01;95505.38;;;17.00;40.81
73671;BME280;61968;48.178;11.566;2022-09-09T04:29:28;95496.59;;;16.94;40.78
73671;BME280;61968;48.178;11.566;2022-09-09T04:31:54;95500.03;;;17.00;41.45
73671;BME280;61968;48.178;11.566;2022-09-09T04:34:21;95486.06;;;17.08;40.81
73671;BME280;61968;48.178;11.566;2022-09-09T04:36:47;95482.34;;;17.09;40.52
73671;BME280;61968;48.178;11.566;2022-09-09T04:39:14;95479.38;;;17.11;40.39
73671;BME280;61968;48.178;11.566;2022-09-09T04:41:40;95483.66;;;17.12;40.78
73671;BME280;61968;48.178;11.566;2022-09-09T04:44:08;95489.84;;;17.07;40.86
73671;BME280;61968;48.178;11.566;2022-09-09T04:46:35;95496.53;;;17.05;41.38
73671;BME280;61968;48.178;11.566;2022-09-09T04:49:01;95491.72;;;17.02;40.53
73671;BME280;61968;48.178;11.566;2022-09-09T04:51:28;95490.88;;;17.11;41.21
73671;BME280;61968;48.178;11.566;2022-09-09T04:53:56;95484.72;;;17.11;40.55
73671;BME280;61968;48.178;11.566;2022-09-09T04:56:22;95484.41;;;17.17;40.54
73671;BME280;61968;48.178;11.566;2022-09-09T04:58:52;95482.81;;;17.16;40.66
73671;BME280;61968;48.178;11.566;2022-09-09T05:01:21;95482.84;;;17.11;40.97
73671;BME280;61968;48.178;11.566;2022-09-09T05:03:49;95479.69;;;17.09;40.79
73671;BME280;61968;48.178;11.566;2022-09-09T05:06:18;95480.22;;;17.06;40.93
73671;BME280;61968;48.178;11.566;2022-09-09T05:08:45;95488.19;;;17.11;40.78
73671;BME280;61968;48.178;11.566;2022-09-09T05:11:16;95489.28;;;17.10;40.75
73671;BME280;61968;48.178;11.566;2022-09-09T05:13:42;95487.94;;;17.08;41.22
73671;BME280;61968;48.178;11.566;2022-09-09T05:16:09;95496.22;;;17.11;40.93
73671;BME280;61968;48.178;11.566;2022-09-09T05:18:38;95495.72;;;17.04;40.83
73671;BME280;61968;48.178;11.566;2022-09-09T05:21:04;95500.03;;;17.00;41.41
73671;BME280;61968;48.178;11.566;2022-09-09T05:23:31;95503.75;;;16.99;41.45
73671;BME280;61968;48.178;11.566;2022-09-09T05:25:59;95511.22;;;17.02;41.50
73671;BME280;61968;48.178;11.566;2022-09-09T05:28:27;95511.75;;;17.04;41.16
73671;BME280;61968;48.178;11.566;2022-09-09T05:30:58;95513.34;;;17.05;41.52
73671;BME280;61968;48.178;11.566;2022-09-09T05:33:25;95508.16;;;16.85;41.24
73671;BME280;61968;48.178;11.566;2022-09-09T05:35:57;95509.19;;;16.84;41.09
73671;BME280;61968;48.178;11.566;2022-09-09T05:38:24;95509.19;;;16.84;41.02
73671;BME280;61968;48.178;11.566;2022-09-09T05:40:51;95514.06;;;16.76;41.30
73671;BME280;61968;48.178;11.566;2022-09-09T05:43:18;95520.47;;;16.65;41.52
73671;BME280;61968;48.178;11.566;2022-09-09T05:45:45;95510.91;;;16.69;41.01
73671;BME280;61968;48.178;11.566;2022-09-09T05:48:12;95518.63;;;16.61;41.39
73671;BME280;61968;48.178;11.566;2022-09-09T05:50:40;95516.22;;;16.64;41.40
73671;BME280;61968;48.178;11.566;2022-09-09T05:53:11;95518.63;;;16.71;41.29
73671;BME280;61968;48.178;11.566;2022-09-09T05:55:38;95514.34;;;16.65;41.39
73671;BME280;61968;48.178;11.566;2022-09-09T05:58:04;95514.31;;;16.75;42.16
73671;BME280;61968;48.178;11.566;2022-09-09T06:00:31;95510.19;;;16.98;42.80
73671;BME280;61968;48.178;11.566;2022-09-09T06:02:57;95516.06;;;17.39;41.90
73671;BME280;61968;48.178;11.566;2022-09-09T06:05:24;95518.00;;;17.68;41.12
73671;BME280;61968;48.178;11.566;2022-09-09T06:07:52;95521.72;;;17.72;40.47
73671;BME280;61968;48.178;11.566;2022-09-09T06:10:20;95526.72;;;17.79;39.65
73671;BME280;61968;48.178;11.566;2022-09-09T06:12:46;95531.84;;;17.75;39.33
73671;BME280;61968;48.178;11.566;2022-09-09T06:15:13;95527.09;;;17.67;40.46
73671;BME280;61968;48.178;11.566;2022-09-09T06:17:40;95519.31;;;17.71;39.99
73671;BME280;61968;48.178;11.566;2022-09-09T06:20:07;95516.72;;;17.60;39.90
73671;BME280;61968;48.178;11.566;2022-09-09T06:22:34;95517.16;;;17.73;40.05
73671;BME280;61968;48.178;11.566;2022-09-09T06:25:01;95523.44;;;17.87;38.99
73671;BME280;61968;48.178;11.566;2022-09-09T06:27:28;95517.63;;;17.80;39.30
73671;BME280;61968;48.178;11.566;2022-09-09T06:29:55;95512.50;;;17.83;38.84
73671;BME280;61968;48.178;11.566;2022-09-09T06:32:21;95518.16;;;17.82;39.14
73671;BME280;61968;48.178;11.566;2022-09-09T06:34:48;95523.72;;;17.85;39.24
73671;BME280;61968;48.178;11.566;2022-09-09T06:37:15;95525.69;;;17.75;39.09
73671;BME280;61968;48.178;11.566;2022-09-09T06:39:41;95525.69;;;17.75;39.20
73671;BME280;61968;48.178;11.566;2022-09-09T06:42:08;95516.03;;;17.79;39.53
73671;BME280;61968;48.178;11.566;2022-09-09T06:44:36;95518.75;;;17.74;38.89
73671;BME280;61968;48.178;11.566;2022-09-09T06:47:02;95518.84;;;17.63;39.74
73671;BME280;61968;48.178;11.566;2022-09-09T06:49:29;95526.38;;;17.56;40.23
73671;BME280;61968;48.178;11.566;2022-09-09T06:51:56;95521.97;;;17.71;39.78
73671;BME280;61968;48.178;11.566;2022-09-09T06:54:22;95529.91;;;17.81;39.78
73671;BME280;61968;48.178;11.566;2022-09-09T06:56:49;95529.13;;;17.80;38.96
73671;BME280;61968;48.178;11.566;2022-09-09T06:59:15;95526.94;;;17.87;39.84
73671;BME280;61968;48.178;11.566;2022-09-09T07:01:43;95531.03;;;18.04;39.18
73671;BME280;61968;48.178;11.566;2022-09-09T07:04:10;95540.41;;;18.01;39.18
73671;BME280;61968;48.178;11.566;2022-09-09T07:06:40;95546.38;;;17.93;39.23
73671;BME280;61968;48.178;11.566;2022-09-09T07:09:09;95548.75;;;18.00;39.91
73671;BME280;61968;48.178;11.566;2022-09-09T07:11:38;95556.84;;;18.24;39.52
73671;BME280;61968;48.178;11.566;2022-09-09T07:14:06;95557.81;;;18.33;39.02
73671;BME280;61968;48.178;11.566;2022-09-09T07:16:34;95582.88;;;18.42;38.61
73671;BME280;61968;48.178;11.566;2022-09-09T07:19:04;95592.66;;;18.52;38.88
73671;BME280;61968;48.178;11.566;2022-09-09T07:21:31;95609.38;;;18.15;39.56
73671;BME280;61968;48.178;11.566;2022-09-09T07:23:58;95598.78;;;17.60;41.21
73671;BME280;61968;48.178;11.566;2022-09-09T07:26:27;95589.22;;;17.54;41.39
73671;BME280;61968;48.178;11.566;2022-09-09T07:28:54;95594.00;;;17.57;41.59
73671;BME280;61968;48.178;11.566;2022-09-09T07:31:22;95593.34;;;17.36;41.90
73671;BME280;61968;48.178;11.566;2022-09-09T07:33:49;95595.72;;;16.88;43.28
73671;BME280;61968;48.178;11.566;2022-09-09T07:36:19;95586.47;;;17.19;42.93
73671;BME280;61968;48.178;11.566;2022-09-09T07:38:49;95591.44;;;17.36;42.66
73671;BME280;61968;48.178;11.566;2022-09-09T07:41:18;95593.03;;;17.37;42.55
73671;BME280;61968;48.178;11.566;2022-09-09T07:43:46;95601.28;;;17.51;42.30
73671;BME280;61968;48.178;11.566;2022-09-09T07:46:14;95601.06;;;17.32;42.65
73671;BME280;61968;48.178;11.566;2022-09-09T07:48:43;95609.38;;;17.36;42.50
73671;BME280;61968;48.178;11.566;2022-09-09T07:51:12;95611.41;;;17.54;42.56
73671;BME280;61968;48.178;11.566;2022-09-09T07:53:43;95609.03;;;17.48;42.55
73671;BME280;61968;48.178;11.566;2022-09-09T07:56:12;95610.84;;;17.57;42.25
73671;BME280;61968;48.178;11.566;2022-09-09T07:58:39;95609.78;;;17.53;42.57
73671;BME280;61968;48.178;11.566;2022-09-09T08:01:08;95610.09;;;17.41;42.66
73671;BME280;61968;48.178;11.566;2022-09-09T08:03:35;95615.34;;;17.62;42.37
73671;BME280;61968;48.178;11.566;2022-09-09T08:06:03;95607.34;;;17.62;42.58
73671;BME280;61968;48.178;11.566;2022-09-09T08:08:30;95610.03;;;17.57;42.51
73671;BME280;61968;48.178;11.566;2022-09-09T08:11:06;95607.66;;;17.55;42.95
73671;BME280;61968;48.178;11.566;2022-09-09T08:13:34;95614.56;;;17.61;42.45
73671;BME280;61968;48.178;11.566;2022-09-09T08:16:06;95624.97;;;17.63;42.25
73671;BME280;61968;48.178;11.566;2022-09-09T08:18:33;95629.28;;;17.59;43.08
73671;BME280;61968;48.178;11.566;2022-09-09T08:21:05;95635.63;;;17.68;43.02
73671;BME280;61968;48.178;11.566;2022-09-09T08:23:33;95635.97;;;17.56;43.15
73671;BME280;61968;48.178;11.566;2022-09-09T08:26:06;95642.75;;;17.43;43.30
73671;BME280;61968;48.178;11.566;2022-09-09T08:28:34;95640.88;;;17.39;43.55
73671;BME280;61968;48.178;11.566;2022-09-09T08:31:09;95645.34;;;17.54;43.39
73671;BME280;61968;48.178;11.566;2022-09-09T08:33:36;95645.56;;;17.62;42.99
73671;BME280;61968;48.178;11.566;2022-09-09T08:36:04;95647.66;;;17.71;43.43
73671;BME280;61968;48.178;11.566;2022-09-09T08:38:30;95641.19;;;17.77;43.32
73671;BME280;61968;48.178;11.566;2022-09-09T08:41:07;95636.31;;;17.84;43.62
73671;BME280;61968;48.178;11.566;2022-09-09T08:43:37;95645.34;;;17.93;43.02
73671;BME280;61968;48.178;11.566;2022-09-09T08:46:09;95653.56;;;18.02;43.21
73671;BME280;61968;48.178;11.566;2022-09-09T08:48:46;95654.88;;;18.04;43.36
73671;BME280;61968;48.178;11.566;2022-09-09T08:51:15;95649.50;;;18.09;43.58
73671;BME280;61968;48.178;11.566;2022-09-09T08:53:46;95647.09;;;18.13;42.92
73671;BME280;61968;48.178;11.566;2022-09-09T08:56:18;95645.75;;;18.16;43.39
73671;BME280;61968;48.178;11.566;2022-09-09T08:58:49;95647.84;;;18.19;43.10
73671;BME280;61968;48.178;11.566;2022-09-09T09:01:40;95647.16;;;18.03;43.37
73671;BME280;61968;48.178;11.566;2022-09-09T09:04:19;95644.41;;;18.13;43.29
73671;BME280;61968;48.178;11.566;2022-09-09T09:06:55;95640.34;;;18.21;42.66
73671;BME280;61968;48.178;11.566;2022-09-09T09:09:32;95636.56;;;18.27;41.36
73671;BME280;61968;48.178;11.566;2022-09-09T09:12:13;95628.22;;;18.28;42.41
73671;BME280;61968;48.178;11.566;2022-09-09T09:14:43;95634.09;;;18.30;43.15
73671;BME280;61968;48.178;11.566;2022-09-09T09:17:12;95631.66;;;18.34;43.34
73671;BME280;61968;48.178;11.566;2022-09-09T09:19:41;95627.97;;;18.30;43.36
73671;BME280;61968;48.178;11.566;2022-09-09T09:22:14;95628.81;;;18.20;43.03
73671;BME280;61968;48.178;11.566;2022-09-09T09:24:48;95635.31;;;18.14;43.10
73671;BME280;61968;48.178;11.566;2022-09-09T09:27:24;95638.13;;;18.28;42.85
73671;BME280;61968;48.178;11.566;2022-09-09T09:29:55;95637.00;;;18.34;43.05
73671;BME280;61968;48.178;11.566;2022-09-09T09:32:24;95637.84;;;18.29;42.79
73671;BME280;61968;48.178;11.566;2022-09-09T09:34:55;95642.72;;;18.22;43.49
73671;BME280;61968;48.178;11.566;2022-09-09T09:37:27;95645.75;;;18.10;43.65
73671;BME280;61968;48.178;11.566;2022-09-09T09:39:54;95643.31;;;18.19;43.09
73671;BME280;61968;48.178;11.566;2022-09-09T09:42:22;95647.38;;;18.11;43.37
73671;BME280;61968;48.178;11.566;2022-09-09T09:44:49;95640.66;;;18.14;43.07
73671;BME280;61968;48.178;11.566;2022-09-09T09:47:18;95646.09;;;17.99;42.90
73671;BME280;61968;48.178;11.566;2022-09-09T09:49:52;95638.66;;;17.56;42.93
73671;BME280;61968;48.178;11.566;2022-09-09T09:52:22;95645.56;;;17.62;42.46
73671;BME280;61968;48.178;11.566;2022-09-09T09:54:50;95643.09;;;17.71;41.94
73671;BME280;61968;48.178;11.566;2022-09-09T09:57:17;95651.25;;;17.51;41.27
73671;BME280;61968;48.178;11.566;2022-09-09T09:59:46;95640.75;;;17.59;41.21
73671;BME280;61968;48.178;11.566;2022-09-09T10:02:18;95644.22;;;17.65;40.31
73671;BME280;61968;48.178;11.566;2022-09-09T10:04:45;95643.25;;;17.40;40.47
73671;BME280;61968;48.178;11.566;2022-09-09T10:07:15;95652.00;;;17.56;41.63
73671;BME280;61968;48.178;11.566;2022-09-09T10:09:43;95647.19;;;17.63;40.74
73671;BME280;61968;48.178;11.566;2022-09-09T10:12:22;95641.31;;;17.56;40.97
73671;BME280;61968;48.178;11.566;2022-09-09T10:14:59;95638.25;;;17.23;41.34
73671;BME280;61968;48.178;11.566;2022-09-09T10:17:34;95636.00;;;16.96;42.12
73671;BME280;61968;48.178;11.566;2022-09-09T10:20:17;95640.44;;;17.21;41.88
73671;BME280;61968;48.178;11.566;2022-09-09T10:22:50;95638.66;;;17.56;42.76
73671;BME280;61968;48.178;11.566;2022-09-09T10:25:27;95642.06;;;17.67;42.35
73671;BME280;61968;48.178;11.566;2022-09-09T10:28:15;95645.41;;;17.88;41.57
73671;BME280;61968;48.178;11.566;2022-09-09T10:30:52;95654.91;;;17.99;41.74
73671;BME280;61968;48.178;11.566;2022-09-09T10:33:27;95653.97;;;17.85;41.38
73671;BME280;61968;48.178;11.566;2022-09-09T10:36:03;95647.34;;;17.77;40.77
73671;BME280;61968;48.178;11.566;2022-09-09T10:38:39;95639.84;;;17.79;41.25
73671;BME280;61968;48.178;11.566;2022-09-09T10:41:16;95638.88;;;17.65;41.26
73671;BME280;61968;48.178;11.566;2022-09-09T10:44:18;95631.91;;;17.69;42.11
73671;BME280;61968;48.178;11.566;2022-09-09T10:47:08;95641.81;;;17.63;41.69
73671;BME280;61968;48.178;11.566;2022-09-09T10:52:38;95640.75;;;17.64;41.51
73671;BME280;61968;48.178;11.566;2022-09-09T10:55:10;95649.03;;;17.63;41.95
73671;BME280;61968;48.178;11.566;2022-09-09T10:57:42;95645.28;;;17.64;42.00
73671;BME280;61968;48.178;11.566;2022-09-09T11:00:16;95645.28;;;17.69;41.55
73671;BME280;61968;48.178;11.566;2022-09-09T11:02:45;95647.63;;;17.76;40.94
73671;BME280;61968;48.178;11.566;2022-09-09T11:05:19;95641.31;;;17.56;41.16
73671;BME280;61968;48.178;11.566;2022-09-09T11:07:49;95643.88;;;17.77;40.77
73671;BME280;61968;48.178;11.566;2022-09-09T11:10:22;95642.28;;;17.76;40.89
73671;BME280;61968;48.178;11.566;2022-09-09T11:12:54;95639.53;;;17.86;40.59
73671;BME280;61968;48.178;11.566;2022-09-09T11:15:29;95640.56;;;17.90;40.72
73671;BME280;61968;48.178;11.566;2022-09-09T11:18:01;95635.72;;;17.92;40.69
73671;BME280;61968;48.178;11.566;2022-09-09T11:20:31;95641.00;;;18.02;39.79
73671;BME280;61968;48.178;11.566;2022-09-09T11:23:01;95639.34;;;18.11;40.19
73671;BME280;61968;48.178;11.566;2022-09-09T11:25:33;95637.81;;;18.34;39.74
73671;BME280;61968;48.178;11.566;2022-09-09T11:28:18;95637.78;;;18.05;38.29
73671;BME280;61968;48.178;11.566;2022-09-09T11:31:00;95631.91;;;18.03;39.61
73671;BME280;61968;48.178;11.566;2022-09-09T11:33:51;95641.31;;;17.96;39.13
73671;BME280;61968;48.178;11.566;2022-09-09T11:39:58;95631.28;;;18.17;38.73
73671;BME280;61968;48.178;11.566;2022-09-09T11:42:30;95639.91;;;18.38;39.36
73671;BME280;61968;48.178;11.566;2022-09-09T11:44:57;95628.78;;;18.54;38.76
73671;BME280;61968;48.178;11.566;2022-09-09T11:47:34;95633.84;;;18.80;38.10
73671;BME280;61968;48.178;11.566;2022-09-09T11:50:10;95637.47;;;18.94;38.23
73671;BME280;61968;48.178;11.566;2022-09-09T11:52:40;95632.34;;;18.98;37.39
73671;BME280;61968;48.178;11.566;2022-09-09T11:55:24;95628.34;;;18.95;38.11
73671;BME280;61968;48.178;11.566;2022-09-09T11:57:57;95636.97;;;18.92;37.43
73671;BME280;61968;48.178;11.566;2022-09-09T12:00:31;95640.34;;;18.74;37.15
73671;BME280;61968;48.178;11.566;2022-09-09T12:02:59;95639.38;;;18.65;37.33
73671;BME280;61968;48.178;11.566;2022-09-09T12:05:39;95638.63;;;18.59;37.60
73671;BME280;61968;48.178;11.566;2022-09-09T12:08:10;95635.16;;;18.58;37.32
73671;BME280;61968;48.178;11.566;2022-09-09T12:10:39;95639.44;;;18.59;37.77
73671;BME280;61968;48.178;11.566;2022-09-09T12:13:16;95632.22;;;18.60;38.12
73671;BME280;61968;48.178;11.566;2022-09-09T12:15:47;95628.50;;;18.56;37.34
73671;BME280;61968;48.178;11.566;2022-09-09T12:18:20;95625.34;;;18.20;38.00
73671;BME280;61968;48.178;11.566;2022-09-09T12:20:55;95633.47;;;18.09;38.80
73671;BME280;61968;48.178;11.566;2022-09-09T12:23:35;95626.41;;;18.24;38.15
73671;BME280;61968;48.178;11.566;2022-09-09T12:26:13;95625.13;;;18.16;38.19
73671;BME280;61968;48.178;11.566;2022-09-09T12:28:52;95630.78;;;18.15;38.23
73671;BME280;61968;48.178;11.566;2022-09-09T12:31:26;95627.94;;;17.96;38.61
73671;BME280;61968;48.178;11.566;2022-09-09T12:34:04;95622.44;;;18.16;39.15
73671;BME280;61968;48.178;11.566;2022-09-09T12:36:37;95615.31;;;18.35;38.88
73671;BME280;61968;48.178;11.566;2022-09-09T12:39:10;95616.25;;;18.50;38.61
73671;BME280;61968;48.178;11.566;2022-09-09T12:41:51;95620.69;;;18.59;38.21
73671;BME280;61968;48.178;11.566;2022-09-09T12:44:23;95616.56;;;18.43;38.33
73671;BME280;61968;48.178;11.566;2022-09-09T12:46:51;95611.00;;;18.40;38.40
73671;BME280;61968;48.178;11.566;2022-09-09T12:49:29;95614.84;;;18.28;38.47
73671;BME280;61968;48.178;11.566;2022-09-09T12:52:01;95610.63;;;17.88;39.21
73671;BME280;61968;48.178;11.566;2022-09-09T12:54:28;95606.50;;;18.01;38.89
73671;BME280;61968;48.178;11.566;2022-09-09T12:56:55;95600.22;;;18.21;38.25
73671;BME280;61968;48.178;11.566;2022-09-09T12:59:24;95598.78;;;18.28;38.90
73671;BME280;61968;48.178;11.566;2022-09-09T13:01:58;95592.50;;;18.43;38.22
73671;BME280;61968;48.178;11.566;2022-09-09T13:04:24;95589.25;;;18.46;38.36
73671;BME280;61968;48.178;11.566;2022-09-09T13:06:51;95588.72;;;18.44;38.28
73671;BME280;61968;48.178;11.566;2022-09-09T13:09:20;95589.41;;;18.55;38.41
73671;BME280;61968;48.178;11.566;2022-09-09T13:11:50;95593.41;;;18.57;38.39
73671;BME280;61968;48.178;11.566;2022-09-09T13:14:28;95590.03;;;18.47;38.30